.
WxDataArchive / Data Records for 2016-05-21
2016-05-20 May 2016 2016-05-22

Data Records for Saturday, 21 May 2016

Time	Temp	Chill	HIndex	Humid	Dewpt	 Wind 	HiWind	WindDir	Rain 	Barom
-----	----	-----	------	-----	-----	------	------	-------	-----	-----
00:00	58.6	58.6	58.6	58	43.9	0	1	68	0.00	30.024 
00:05	58.4	58.4	58.4	59	44.1	0	3	68	0.00	30.024 
00:10	58.3	58.3	58.3	59	44.0	0	3	68	0.00	30.024 
00:15	58.1	58.1	58.1	60	44.3	0	1	68	0.00	30.022 
00:20	58.1	58.1	58.1	60	44.3	0	2	68	0.00	30.022 
00:25	58.0	58.0	58.0	61	44.6	0	2	68	0.00	30.022 
00:30	58.0	58.0	58.0	61	44.6	0	2	68	0.00	30.017 
00:35	57.8	57.8	57.8	62	44.9	0	3	68	0.00	30.017 
00:40	57.8	57.8	57.8	62	44.9	1	3	90	0.00	30.017 
00:45	57.8	57.8	57.8	63	45.3	1	2	90	0.00	30.018 
00:50	57.8	57.8	57.8	64	45.7	1	3	90	0.00	30.018 
00:55	57.8	57.8	57.8	65	46.1	1	3	90	0.00	30.018 
01:00	57.8	57.8	57.8	66	46.5	0	2	90	0.00	30.017 
01:05	57.8	57.8	57.8	66	46.5	0	2	90	0.00	30.017 
01:10	57.8	57.8	57.8	67	46.9	0	1	90	0.00	30.017 
01:15	57.6	57.6	57.6	67	46.7	0	2	90	0.00	30.017 
01:20	57.6	57.6	57.6	67	46.7	0	2	90	0.00	30.017 
01:25	57.6	57.6	57.6	68	47.1	0	0	---	0.00	30.017 
01:30	57.5	57.5	57.5	69	47.4	0	0	---	0.00	30.018 
01:35	57.3	57.3	57.3	69	47.2	0	0	---	0.00	30.018 
01:40	57.2	57.2	57.2	69	47.1	0	0	---	0.00	30.018 
01:45	57.0	57.0	57.0	70	47.3	0	0	---	0.00	30.016 
01:50	57.0	57.0	57.0	70	47.3	0	0	---	0.00	30.016 
01:55	56.9	56.9	56.9	70	47.2	0	0	---	0.00	30.016 
02:00	56.9	56.9	56.9	70	47.2	0	0	---	0.00	30.013 
02:05	56.7	56.7	56.7	70	47.0	0	0	---	0.00	30.013 
02:10	56.6	56.6	56.6	69	46.5	0	0	---	0.00	30.013 
02:15	56.5	56.5	56.5	70	46.8	0	0	---	0.00	30.010 
02:20	56.3	56.3	56.3	72	47.4	0	0	---	0.00	30.010 
02:25	56.0	56.0	56.0	73	47.5	0	1	90	0.00	30.010 
02:30	55.7	55.7	55.7	75	47.9	0	0	---	0.00	30.003 
02:35	55.4	55.4	55.4	76	48.0	0	0	---	0.01	30.003 
02:40	55.1	55.1	55.1	77	48.0	0	0	---	0.00	30.003 
02:45	55.0	55.0	55.0	78	48.3	0	0	---	0.00	30.003 
02:50	54.7	54.7	54.7	80	48.7	0	0	---	0.01	30.003 
02:55	54.4	54.4	54.4	81	48.7	0	0	---	0.01	30.003 
03:00	54.1	54.1	54.1	82	48.7	0	1	90	0.00	29.999 
03:05	53.8	53.8	53.8	83	48.8	0	0	---	0.01	29.999 
03:10	53.6	53.6	53.6	84	48.9	0	0	---	0.00	29.999 
03:15	53.3	53.3	53.3	85	48.9	0	1	90	0.01	29.991 
03:20	53.2	53.2	53.2	85	48.8	0	2	90	0.00	29.991 
03:25	53.1	53.1	53.1	86	49.0	0	1	90	0.00	29.991 
03:30	52.9	52.9	52.9	86	48.8	0	1	90	0.00	29.992 
03:35	52.8	52.8	52.8	87	49.0	0	0	---	0.00	29.992 
03:40	52.8	52.8	52.8	87	49.0	0	0	---	0.00	29.992 
03:45	52.8	52.8	52.8	87	49.0	0	0	---	0.00	29.991 
03:50	52.8	52.8	52.8	87	49.0	0	0	---	0.00	29.991 
03:55	52.8	52.8	52.8	88	49.3	0	0	---	0.00	29.991 
04:00	52.8	52.8	52.8	88	49.3	0	0	---	0.00	29.987 
04:05	52.6	52.6	52.6	88	49.1	0	0	---	0.00	29.987 
04:10	52.6	52.6	52.6	88	49.1	0	0	---	0.01	29.987 
04:15	52.6	52.6	52.6	88	49.1	0	0	---	0.00	29.978 
04:20	52.8	52.8	52.8	89	49.6	0	0	---	0.00	29.978 
04:25	52.8	52.8	52.8	89	49.6	0	0	---	0.00	29.978 
04:30	52.8	52.8	52.8	89	49.6	0	0	---	0.00	29.981 
04:35	52.8	52.8	52.8	89	49.6	0	1	90	0.00	29.981 
04:40	52.8	52.8	52.8	89	49.6	0	0	---	0.00	29.981 
04:45	52.8	52.8	52.8	89	49.6	0	0	---	0.00	29.979 
04:50	52.8	52.8	52.8	89	49.6	0	0	---	0.00	29.979 
04:55	52.8	52.8	52.8	89	49.6	0	0	---	0.00	29.979 
05:00	52.8	52.8	52.8	89	49.6	0	0	---	0.00	29.982 
05:05	52.8	52.8	52.8	90	49.9	0	0	---	0.00	29.982 
05:10	52.8	52.8	52.8	90	49.9	0	0	---	0.00	29.982 
05:15	52.9	52.9	52.9	90	50.0	0	1	90	0.00	29.982 
05:20	53.1	53.1	53.1	90	50.2	0	0	---	0.00	29.982 
05:25	53.2	53.2	53.2	89	50.0	0	2	90	0.00	29.982 
05:30	53.3	53.3	53.3	89	50.1	0	2	90	0.00	29.975 
05:35	53.3	53.3	53.3	89	50.1	0	1	90	0.00	29.975 
05:40	53.3	53.3	53.3	88	49.8	0	1	90	0.00	29.975 
05:45	53.5	53.5	53.5	88	50.0	0	1	90	0.00	29.982 
05:50	53.5	53.5	53.5	88	50.0	0	0	---	0.00	29.982 
05:55	53.5	53.5	53.5	88	50.0	0	0	---	0.00	29.982 
06:00	53.6	53.6	53.6	89	50.4	0	1	90	0.00	29.989 
06:05	53.6	53.6	53.6	89	50.4	0	2	90	0.00	29.989 
06:10	53.8	53.8	53.8	89	50.6	0	1	90	0.00	29.989 
06:15	53.8	53.8	53.8	89	50.6	0	0	---	0.00	29.989 
06:20	53.6	53.6	53.6	89	50.4	0	1	90	0.00	29.989 
06:25	53.5	53.5	53.5	89	50.3	0	2	90	0.00	29.989 
06:30	53.3	53.3	53.3	89	50.1	0	1	90	0.00	29.988 
06:35	53.2	53.2	53.2	89	50.0	0	1	90	0.00	29.988 
06:40	53.2	53.2	53.2	89	50.0	0	2	90	0.00	29.988 
06:45	53.2	53.2	53.2	89	50.0	0	1	45	0.00	29.990 
06:50	53.1	53.1	53.1	89	49.9	0	2	45	0.00	29.990 
06:55	53.2	53.2	53.2	89	50.0	0	1	45	0.00	29.990 
07:00	53.2	53.2	53.2	89	50.0	0	0	---	0.00	29.991 
07:05	53.3	53.3	53.3	89	50.1	0	0	---	0.00	29.991 
07:10	53.3	53.3	53.3	88	49.8	0	0	---	0.00	29.991 
07:15	53.5	53.5	53.5	88	50.0	0	0	---	0.00	29.995 
07:20	53.6	53.6	53.6	88	50.1	0	1	45	0.00	29.995 
07:25	53.8	53.8	53.8	88	50.3	0	1	45	0.00	29.995 
07:30	53.9	53.9	53.9	87	50.1	0	3	22	0.00	29.999 
07:35	54.1	54.1	54.1	87	50.3	0	2	270	0.00	29.999 
07:40	54.4	54.4	54.4	87	50.6	0	2	270	0.00	29.999 
07:45	54.5	54.5	54.5	86	50.4	0	2	270	0.00	30.002 
07:50	54.7	54.7	54.7	86	50.6	0	3	270	0.00	30.002 
07:55	55.0	55.0	55.0	85	50.6	0	2	270	0.00	30.002 
08:00	55.1	55.1	55.1	85	50.7	0	2	270	0.00	30.004 
08:05	55.3	55.3	55.3	84	50.5	0	1	270	0.00	30.004 
08:10	55.6	55.6	55.6	84	50.8	0	2	270	0.00	30.004 
08:15	55.7	55.7	55.7	84	50.9	0	3	270	0.00	30.008 
08:20	55.9	55.9	55.9	83	50.8	0	3	270	0.00	30.008 
08:25	56.0	56.0	56.0	82	50.6	0	1	270	0.00	30.008 
08:30	56.0	56.0	56.0	82	50.6	1	3	270	0.00	30.007 
08:35	56.2	56.2	56.2	82	50.8	0	2	270	0.00	30.007 
08:40	56.3	56.3	56.3	82	50.9	0	1	270	0.00	30.007 
08:45	56.3	56.3	56.3	82	50.9	0	2	270	0.00	30.011 
08:50	56.5	56.5	56.5	81	50.7	0	2	270	0.00	30.011 
08:55	56.5	56.5	56.5	81	50.7	0	2	270	0.00	30.011 
09:00	56.5	56.5	56.5	81	50.7	0	2	270	0.00	30.012 
09:05	56.5	56.5	56.5	80	50.4	0	2	270	0.00	30.012 
09:10	56.5	56.5	56.5	81	50.7	0	2	270	0.00	30.012 
09:15	56.5	56.5	56.5	80	50.4	1	3	270	0.00	30.017 
09:20	56.6	56.6	56.6	80	50.5	1	3	270	0.00	30.017 
09:25	56.7	56.7	56.7	79	50.3	0	3	270	0.00	30.017 
09:30	56.9	56.9	56.9	78	50.1	0	2	270	0.00	30.012 
09:35	57.2	57.2	57.2	77	50.1	0	2	270	0.00	30.012 
09:40	57.5	57.5	57.5	75	49.6	0	2	270	0.00	30.012 
09:45	57.8	57.8	57.8	73	49.2	0	2	270	0.00	30.013 
09:50	58.3	58.3	58.3	73	49.7	0	2	270	0.00	30.013 
09:55	58.6	58.6	58.6	72	49.6	0	1	270	0.00	30.013 
10:00	58.9	58.9	58.9	70	49.1	0	4	270	0.00	30.012 
10:05	59.3	59.3	59.3	69	49.1	0	2	270	0.00	30.012 
10:10	59.6	59.6	59.6	68	49.0	0	3	270	0.00	30.012 
10:15	59.9	59.9	59.9	67	48.9	0	2	270	0.00	30.012 
10:20	60.2	60.2	60.2	65	48.4	0	4	292	0.00	30.012 
10:25	60.5	60.5	60.5	65	48.7	0	3	292	0.00	30.012 
10:30	60.9	60.9	60.9	65	49.1	0	2	292	0.00	30.007 
10:35	61.2	61.2	61.2	62	48.1	1	4	292	0.00	30.007 
10:40	61.3	61.3	61.3	63	48.6	0	3	292	0.00	30.007 
10:45	61.6	61.6	61.6	62	48.4	1	4	292	0.00	30.006 
10:50	62.0	62.0	62.0	61	48.4	1	4	292	0.00	30.006 
10:55	62.3	62.3	62.3	61	48.7	0	4	292	0.00	30.006 
11:00	62.6	62.6	62.6	63	49.8	0	3	292	0.00	30.009 
11:05	62.6	62.6	62.6	61	49.0	0	3	292	0.00	30.009 
11:10	62.9	62.9	62.9	62	49.7	0	2	292	0.00	30.009 
11:15	63.2	63.2	63.2	60	49.1	1	3	292	0.00	30.011 
11:20	63.4	63.4	63.4	59	48.8	1	4	292	0.00	30.011 
11:25	63.9	63.9	63.9	61	50.2	0	2	292	0.00	30.011 
11:30	64.3	64.3	64.3	61	50.6	0	1	292	0.00	30.011 
11:35	64.8	64.8	64.8	57	49.2	0	3	292	0.00	30.011 
11:40	65.5	65.5	65.5	55	48.9	0	2	292	0.00	30.011 
11:45	66.1	66.1	66.1	49	46.4	1	4	315	0.00	30.009 
11:50	66.6	66.6	66.6	47	45.7	1	6	135	0.00	30.009 
11:55	67.3	67.3	67.3	48	46.9	1	5	90	0.00	30.009 
12:00	67.6	67.6	67.6	49	47.8	1	6	90	0.00	30.009 
12:05	67.6	67.6	67.6	45	45.5	1	4	68	0.00	30.009 
12:10	67.3	67.3	67.3	46	45.8	1	4	90	0.00	30.009 
12:15	66.9	66.9	66.9	47	46.0	1	3	315	0.00	30.011 
12:20	66.8	66.8	66.8	47	45.9	0	3	315	0.00	30.011 
12:25	66.6	66.6	66.6	46	45.2	1	4	90	0.00	30.011 
12:30	66.6	66.6	66.6	49	46.8	0	3	90	0.00	30.013 
12:35	66.6	66.6	66.6	47	45.7	1	3	90	0.00	30.013 
12:40	66.6	66.6	66.6	47	45.7	1	4	135	0.00	30.013 
12:45	66.6	66.6	66.6	47	45.7	0	3	135	0.00	30.013 
12:50	66.6	66.6	66.6	49	46.8	1	5	135	0.00	30.013 
12:55	66.4	66.4	66.4	50	47.2	1	4	292	0.00	30.013 
13:00	66.3	66.3	66.3	50	47.1	0	2	292	0.00	30.015 
13:05	66.0	66.0	66.0	49	46.3	1	4	292	0.00	30.015 
13:10	65.8	65.8	65.8	50	46.6	0	2	292	0.00	30.015 
13:15	65.6	65.6	65.6	49	45.9	0	1	292	0.00	30.016 
13:20	65.8	65.8	65.8	50	46.6	0	1	292	0.00	30.016 
13:25	65.8	65.8	65.8	50	46.6	1	4	292	0.00	30.016 
13:30	65.8	65.8	65.8	49	46.1	0	5	292	0.00	30.009 
13:35	66.0	66.0	66.0	49	46.3	0	3	292	0.00	30.009 
13:40	66.3	66.3	66.3	47	45.5	1	3	292	0.00	30.009 
13:45	66.3	66.3	66.3	46	44.9	1	4	292	0.00	30.009 
13:50	66.4	66.4	66.4	46	45.0	1	5	112	0.00	30.009 
13:55	66.4	66.4	66.4	44	43.8	1	4	90	0.00	30.009 
14:00	66.4	66.4	66.4	43	43.2	1	2	112	0.00	30.005 
14:05	66.6	66.6	66.6	43	43.4	1	4	112	0.00	30.005 
14:10	66.8	66.8	66.8	42	43.0	1	4	270	0.00	30.005 
14:15	66.8	66.8	66.8	45	44.8	0	3	270	0.00	30.006 
14:20	66.9	66.9	66.9	46	45.4	0	1	338	0.00	30.006 
14:25	67.1	67.1	67.1	43	43.8	1	4	338	0.00	30.006 
14:30	67.1	67.1	67.1	43	43.8	0	3	292	0.00	30.005 
14:35	67.1	67.1	67.1	43	43.8	0	1	292	0.00	30.005 
14:40	67.3	67.3	67.3	44	44.6	0	1	292	0.00	30.005 
14:45	67.6	67.6	67.6	46	46.1	0	3	292	0.00	30.002 
14:50	68.3	68.3	68.3	46	46.7	0	3	292	0.00	30.002 
14:55	69.1	69.1	69.1	50	49.7	0	2	292	0.00	30.002 
15:00	69.9	69.9	69.9	43	46.4	0	3	292	0.00	29.995 
15:05	70.6	70.6	70.6	40	45.1	0	2	68	0.00	29.995 
15:10	71.1	71.1	71.1	42	46.8	1	5	90	0.00	29.995 
15:15	71.1	71.1	71.1	41	46.2	1	3	90	0.00	29.987 
15:20	71.3	71.3	71.3	43	47.6	1	2	90	0.00	29.987 
15:25	71.5	71.5	71.5	43	47.8	1	5	90	0.00	29.987 
15:30	71.8	71.8	71.8	40	46.2	0	2	135	0.00	29.985 
15:35	72.1	72.1	72.1	39	45.8	1	4	315	0.00	29.985 
15:40	72.5	72.5	72.5	38	45.4	1	5	90	0.00	29.985 
15:45	72.7	72.7	72.7	38	45.6	1	4	90	0.00	29.983 
15:50	72.5	72.5	72.5	36	44.0	1	5	90	0.00	29.983 
15:55	72.8	72.8	72.8	39	46.4	1	4	90	0.00	29.983 
16:00	73.2	73.2	73.2	39	46.7	0	2	90	0.00	29.974 
16:05	73.3	73.3	73.3	40	47.5	1	4	90	0.00	29.974 
16:10	73.5	73.5	73.5	35	44.2	1	4	90	0.00	29.974 
16:15	73.5	73.5	73.5	36	44.9	1	3	90	0.00	29.972 
16:20	73.2	73.2	73.2	35	43.9	0	3	90	0.00	29.972 
16:25	73.2	73.2	73.2	35	43.9	0	2	90	0.00	29.972 
16:30	73.5	73.5	73.5	34	43.4	1	4	270	0.00	29.966 
16:35	73.3	73.3	73.3	29	39.1	1	5	292	0.00	29.966 
16:40	73.3	73.3	73.3	34	43.2	1	5	90	0.00	29.966 
16:45	73.9	73.9	73.9	33	43.0	0	2	90	0.00	29.963 
16:50	74.6	74.6	74.6	36	45.9	1	4	90	0.00	29.963 
16:55	74.7	74.7	74.7	31	42.0	1	4	90	0.00	29.963 
17:00	74.4	74.4	74.4	30	40.9	1	5	90	0.00	29.962 
17:05	74.2	74.2	74.2	29	39.9	1	6	292	0.00	29.962 
17:10	73.5	73.5	73.5	29	39.3	1	5	292	0.00	29.962 
17:15	72.8	72.8	72.8	33	42.0	0	3	338	0.00	29.963 
17:20	73.3	73.3	73.3	31	40.8	0	2	338	0.00	29.963 
17:25	73.9	73.9	73.9	29	39.6	0	3	315	0.00	29.963 
17:30	74.2	74.2	74.2	31	41.6	1	4	315	0.00	29.956 
17:35	73.9	73.9	73.9	33	43.0	1	5	90	0.00	29.956 
17:40	73.5	73.5	73.5	31	41.0	1	4	90	0.00	29.956 
17:45	73.5	73.5	73.5	32	41.8	1	4	90	0.00	29.957 
17:50	73.5	73.5	73.5	34	43.4	0	2	90	0.00	29.957 
17:55	73.0	73.0	73.0	33	42.2	0	3	90	0.00	29.957 
18:00	72.7	72.7	72.7	33	41.9	0	3	90	0.00	29.966 
18:05	72.1	72.1	72.1	37	44.4	1	5	90	0.00	29.966 
18:10	71.6	71.6	71.6	38	44.6	1	3	90	0.00	29.966 
18:15	71.1	71.1	71.1	39	44.9	1	3	90	0.00	29.968 
18:20	70.9	70.9	70.9	40	45.4	1	4	68	0.00	29.968 
18:25	71.1	71.1	71.1	38	44.2	0	3	68	0.00	29.968 
18:30	71.3	71.3	71.3	40	45.7	1	5	90	0.00	29.966 
18:35	71.3	71.3	71.3	37	43.7	2	4	90	0.00	29.966 
18:40	71.3	71.3	71.3	39	45.1	1	3	90	0.00	29.966 
18:45	71.3	71.3	71.3	35	42.2	0	2	90	0.00	29.965 
18:50	71.3	71.3	71.3	37	43.7	1	3	90	0.00	29.965 
18:55	71.1	71.1	71.1	37	43.5	1	4	90	0.00	29.965 
19:00	71.1	71.1	71.1	40	45.5	0	3	90	0.00	29.964 
19:05	70.9	70.9	70.9	38	44.0	1	4	90	0.00	29.964 
19:10	70.9	70.9	70.9	39	44.7	1	3	90	0.00	29.964 
19:15	70.9	70.9	70.9	39	44.7	0	2	90	0.00	29.965 
19:20	70.9	70.9	70.9	39	44.7	1	3	90	0.00	29.965 
19:25	70.9	70.9	70.9	38	44.0	0	1	90	0.00	29.965 
19:30	70.9	70.9	70.9	38	44.0	0	3	90	0.00	29.968 
19:35	71.1	71.1	71.1	39	44.9	0	2	90	0.00	29.968 
19:40	70.9	70.9	70.9	38	44.0	1	2	90	0.00	29.968 
19:45	70.9	70.9	70.9	39	44.7	0	1	90	0.00	29.972 
19:50	70.8	70.8	70.8	40	45.3	0	2	90	0.00	29.972 
19:55	70.8	70.8	70.8	38	43.9	0	1	90	0.00	29.972 
20:00	70.6	70.6	70.6	37	43.1	0	1	90	0.00	29.977 
20:05	70.6	70.6	70.6	38	43.7	0	1	90	0.00	29.977 
20:10	70.4	70.4	70.4	39	44.2	0	1	90	0.00	29.977 
20:15	70.1	70.1	70.1	37	42.6	0	2	90	0.00	29.980 
20:20	69.8	69.8	69.8	35	40.9	0	2	90	0.00	29.980 
20:25	69.6	69.6	69.6	35	40.7	0	2	90	0.00	29.980 
20:30	69.3	69.3	69.3	35	40.5	0	3	90	0.00	29.983 
20:35	68.9	68.9	68.9	35	40.1	0	1	292	0.00	29.983 
20:40	68.4	68.4	68.4	36	40.4	0	0	---	0.00	29.983 
20:45	68.1	68.1	68.1	36	40.1	0	2	292	0.00	29.985 
20:50	67.8	67.8	67.8	37	40.6	0	1	292	0.00	29.985 
20:55	67.4	67.4	67.4	38	40.9	0	0	---	0.00	29.985 
21:00	66.9	66.9	66.9	39	41.1	0	1	292	0.00	29.986 
21:05	66.4	66.4	66.4	39	40.7	0	0	---	0.00	29.986 
21:10	66.1	66.1	66.1	39	40.4	0	0	---	0.00	29.986 
21:15	65.6	65.6	65.6	41	41.3	0	0	---	0.00	29.985 
21:20	65.0	65.0	65.0	43	42.0	0	0	---	0.00	29.985 
21:25	64.5	64.5	64.5	44	42.1	0	0	---	0.00	29.985 
21:30	63.7	63.7	63.7	46	42.5	0	0	---	0.00	29.986 
21:35	62.9	62.9	62.9	48	42.9	0	0	---	0.00	29.986 
21:40	62.1	62.1	62.1	49	42.7	0	0	---	0.00	29.986 
21:45	61.6	61.6	61.6	50	42.8	0	0	---	0.00	29.989 
21:50	61.2	61.2	61.2	52	43.4	0	0	---	0.00	29.989 
21:55	60.7	60.7	60.7	53	43.5	0	0	---	0.00	29.989 
22:00	60.1	60.1	60.1	55	43.9	0	0	---	0.00	29.991 
22:05	59.6	59.6	59.6	56	43.9	0	0	---	0.00	29.991 
22:10	59.2	59.2	59.2	58	44.4	0	0	---	0.00	29.991 
22:15	58.7	58.7	58.7	59	44.4	0	0	---	0.00	29.988 
22:20	58.3	58.3	58.3	61	44.9	0	0	---	0.00	29.988 
22:25	58.0	58.0	58.0	62	45.1	0	0	---	0.00	29.988 
22:30	57.6	57.6	57.6	62	44.7	0	0	---	0.00	29.990 
22:35	57.3	57.3	57.3	64	45.2	0	0	---	0.00	29.990 
22:40	56.9	56.9	56.9	65	45.3	0	0	---	0.00	29.990 
22:45	56.6	56.6	56.6	65	45.0	0	0	---	0.00	29.990 
22:50	56.6	56.6	56.6	66	45.4	0	0	---	0.00	29.990 
22:55	56.5	56.5	56.5	67	45.7	0	0	---	0.00	29.990 
23:00	56.3	56.3	56.3	68	45.9	0	0	---	0.00	29.991 
23:05	56.0	56.0	56.0	69	46.0	0	0	---	0.00	29.991 
23:10	55.9	55.9	55.9	69	45.9	0	0	---	0.00	29.991 
23:15	55.9	55.9	55.9	69	45.9	0	0	---	0.00	29.985 
23:20	55.9	55.9	55.9	69	45.9	0	0	---	0.00	29.985 
23:25	55.9	55.9	55.9	68	45.5	0	1	292	0.00	29.985 
23:30	56.6	56.6	56.6	62	43.7	0	2	292	0.00	29.987 
23:35	57.6	57.6	57.6	58	42.9	0	3	292	0.00	29.987 
23:40	58.6	58.6	58.6	56	43.0	0	3	292	0.00	29.987 
23:45	59.0	59.0	59.0	55	42.9	0	2	292	0.00	29.985 
23:50	59.0	59.0	59.0	54	42.4	0	1	292	0.00	29.985 
23:55	59.0	59.0	59.0	54	42.4	0	3	292	0.00	29.985 

CoCoRaHS
IN-AL-39
A2 Web Hosting
Creative Commons License
GoDaddy
search engine by freefind advanced

loaded 2018-11-13 23:23:23 • last modified 2010-11-18 10:43:29
Privacy PolicyDisclaimer
• wx.awcolley.com is powered by PmWiki v.2002016 •
• all content (unless otherwise noted) © 2018 A W Colley